Terminal Aerodrome Forecast
Issued by NWS Sterling, VA

Current Version | Previous Version | Graphics & Text | Print | Product List | Glossary On
Versions: 1 2 3 4 5 6 7 8 9 10 11 12 13 14 15 16 17 18 19 20 21 22
067
FTUS41 KLWX 211136
TAFIAD
TAF
KIAD 211136Z 2112/2218 34004KT P6SM FEW040 FEW250
     FM220000 04004KT P6SM FEW200 FEW250
     FM220700 00000KT 4SM BR FEW060 FEW250
     FM221200 VRB03KT 5SM BR FEW040 FEW250=

USA.gov is the U.S. government's official web portal to all federal, state and local government web resources and services.